Time;durP1;ratioP1;P1;durP2;ratioP2;P2;SDS_P1;SDS_P2;PMS_P1;PMS_P2;Temp;Humidity;BMP_temperature;BMP_pressure;BME280_temperature;BME280_humidity;BME280_pressure;Samples;Min_cycle;Max_cycle;Signal;HPM_P1;HPM_P2
2022/06/07 00:00:04;;;;;;;16.10;8.82;;;14.10;99.90;;;;;;4966676;28;20056;-54
2022/06/07 00:02:33;;;;;;;11.68;8.98;;;14.10;99.90;;;;;;4968875;28;20091;-55
2022/06/07 00:05:00;;;;;;;11.95;7.85;;;14.10;99.90;;;;;;4980549;28;20049;-55
2022/06/07 00:07:27;;;;;;;10.95;8.13;;;14.10;99.90;;;;;;4969315;28;20038;-54
2022/06/07 00:09:55;;;;;;;10.95;7.75;;;14.10;99.90;;;;;;4972516;28;20734;-55
2022/06/07 00:12:22;;;;;;;17.13;9.35;;;14.00;99.90;;;;;;4989572;28;20573;-54
2022/06/07 00:14:49;;;;;;;11.95;8.05;;;14.10;99.90;;;;;;4988081;28;20826;-55
2022/06/07 00:17:17;;;;;;;13.70;8.20;;;14.10;99.90;;;;;;4989528;28;20194;-55
2022/06/07 00:19:44;;;;;;;8.80;7.35;;;14.10;99.90;;;;;;4991035;28;20041;-54
2022/06/07 00:22:11;;;;;;;7.80;7.10;;;14.10;99.90;;;;;;4987034;28;20877;-55
2022/06/07 00:24:38;;;;;;;9.52;6.75;;;14.10;99.90;;;;;;4989360;28;20919;-55
2022/06/07 00:27:06;;;;;;;7.72;6.50;;;14.10;99.90;;;;;;4985608;28;20060;-55
2022/06/07 00:29:34;;;;;;;8.15;6.00;;;14.10;99.90;;;;;;4989352;28;20210;-54
2022/06/07 00:32:02;;;;;;;8.15;6.68;;;14.10;99.90;;;;;;4987406;28;20037;-55
2022/06/07 00:34:29;;;;;;;7.22;6.53;;;14.10;99.90;;;;;;4988463;28;20048;-55
2022/06/07 00:36:56;;;;;;;7.60;6.65;;;14.10;99.90;;;;;;4987114;28;20389;-56
2022/06/07 00:39:23;;;;;;;11.23;9.05;;;14.10;99.90;;;;;;4982497;28;20033;-54
2022/06/07 00:41:50;;;;;;;10.05;8.73;;;14.10;99.90;;;;;;4985356;28;20140;-56
2022/06/07 00:44:20;;;;;;;16.48;9.18;;;14.10;99.90;;;;;;4982182;28;20056;-55
2022/06/07 00:46:54;;;;;;;11.57;9.40;;;14.10;99.90;;;;;;4988957;28;20052;-55
2022/06/07 00:49:22;;;;;;;13.48;9.40;;;14.10;99.90;;;;;;4988269;28;20064;-55
2022/06/07 00:51:49;;;;;;;12.85;8.35;;;14.10;99.90;;;;;;4982447;28;20183;-56
2022/06/07 00:54:24;;;;;;;11.65;9.77;;;14.10;99.90;;;;;;4977946;28;20157;-55
2022/06/07 00:56:57;;;;;;;9.85;8.80;;;14.10;99.90;;;;;;4968792;28;20056;-55
2022/06/07 00:59:30;;;;;;;10.73;8.38;;;14.10;99.90;;;;;;4968468;28;20187;-55
2022/06/07 01:01:57;;;;;;;13.20;9.40;;;14.10;99.90;;;;;;4965190;28;20135;-56
2022/06/07 01:04:27;;;;;;;10.18;8.95;;;14.10;99.90;;;;;;4969720;28;20056;-55
2022/06/07 01:12:32;;;;;;;12.80;8.97;;;14.20;99.90;;;;;;4981896;28;20045;-56
2022/06/07 01:14:59;;;;;;;8.63;7.82;;;14.20;99.90;;;;;;4987142;28;20483;-55
2022/06/07 01:17:28;;;;;;;9.43;7.70;;;14.20;99.90;;;;;;4986218;28;20041;-54
2022/06/07 01:19:55;;;;;;;14.27;8.05;;;14.20;99.90;;;;;;4988290;28;20041;-55
2022/06/07 01:22:23;;;;;;;10.65;8.27;;;14.20;99.90;;;;;;4987607;28;20044;-54
2022/06/07 01:24:50;;;;;;;9.55;8.10;;;14.20;99.90;;;;;;4989765;28;20052;-55
2022/06/07 01:27:17;;;;;;;;;;;14.30;99.90;;;;;;4991505;28;20692;-53
2022/06/07 01:29:44;;;;;;;8.63;7.50;;;14.30;99.90;;;;;;4985257;28;19933;-56
2022/06/07 01:32:14;;;;;;;8.07;6.90;;;14.30;99.90;;;;;;4989754;28;20041;-56
2022/06/07 01:34:43;;;;;;;9.85;8.80;;;14.30;99.90;;;;;;4986374;28;20458;-54
2022/06/07 01:37:12;;;;;;;12.48;8.50;;;14.30;99.90;;;;;;4993113;28;20398;-56
2022/06/07 01:42:25;;;;;;;8.85;7.95;;;14.30;99.90;;;;;;4990309;28;20765;-55
2022/06/07 01:44:53;;;;;;;7.60;6.88;;;14.30;99.90;;;;;;4985639;28;20213;-55
2022/06/07 01:47:24;;;;;;;11.25;8.30;;;14.30;99.90;;;;;;4993274;28;20040;-55
2022/06/07 01:49:55;;;;;;;9.50;7.85;;;14.30;99.90;;;;;;4985622;28;20439;-55
2022/06/07 01:52:24;;;;;;;10.77;9.68;;;14.30;99.90;;;;;;4984304;28;20037;-55
2022/06/07 01:54:56;;;;;;;15.57;10.43;;;14.30;99.90;;;;;;4984574;28;20052;-56
2022/06/07 01:57:25;;;;;;;11.85;9.98;;;14.30;99.90;;;;;;4982098;28;20263;-55
2022/06/07 01:59:55;;;;;;;12.10;9.93;;;14.30;99.90;;;;;;4970220;28;20045;-55
2022/06/07 02:02:27;;;;;;;8.88;7.72;;;14.30;99.90;;;;;;4983377;28;20052;-54
2022/06/07 02:04:56;;;;;;;11.68;10.18;;;14.30;99.90;;;;;;4982397;28;20138;-55
2022/06/07 02:07:24;;;;;;;13.20;9.18;;;14.30;99.90;;;;;;4971173;28;20128;-54
2022/06/07 02:09:57;;;;;;;11.88;9.25;;;14.30;99.90;;;;;;4973463;28;20210;-55
2022/06/07 02:12:25;;;;;;;10.07;8.85;;;14.20;99.90;;;;;;5001969;28;20187;-55
2022/06/07 02:14:52;;;;;;;9.10;7.80;;;14.20;99.90;;;;;;4988502;28;20362;-55
2022/06/07 02:17:19;;;;;;;9.57;8.05;;;14.20;99.90;;;;;;4989107;28;20213;-56
2022/06/07 02:19:59;;;;;;;9.82;7.45;;;14.30;99.90;;;;;;4988540;28;20425;-54
2022/06/07 02:22:26;;;;;;;8.77;7.88;;;14.30;99.90;;;;;;4990316;28;20045;-55
2022/06/07 02:24:53;;;;;;;;;;;14.30;99.90;;;;;;4982580;28;20037;-55
2022/06/07 02:27:21;;;;;;;8.57;7.38;;;14.30;99.90;;;;;;4991022;28;20007;-55
2022/06/07 02:29:52;;;;;;;8.52;7.03;;;14.30;99.90;;;;;;4989648;28;20609;-55
2022/06/07 02:32:24;;;;;;;8.80;7.90;;;14.30;99.90;;;;;;4971562;28;20955;-54
2022/06/07 02:34:55;;;;;;;6.55;5.95;;;14.30;99.90;;;;;;4985271;28;20471;-54
2022/06/07 02:37:24;;;;;;;7.50;6.70;;;14.40;99.90;;;;;;4992203;28;20041;-54
2022/06/07 02:39:52;;;;;;;7.93;6.45;;;14.30;99.90;;;;;;4990856;28;20543;-54
2022/06/07 02:42:22;;;;;;;6.50;5.85;;;14.40;99.90;;;;;;4989250;28;20099;-55
2022/06/07 02:44:49;;;;;;;10.20;6.68;;;14.40;99.90;;;;;;4989800;28;20051;-55
2022/06/07 02:47:17;;;;;;;10.13;7.43;;;14.40;99.90;;;;;;4990469;28;20041;-54
2022/06/07 02:49:52;;;;;;;7.35;6.65;;;14.40;99.90;;;;;;4987725;28;20323;-55
2022/06/07 02:52:20;;;;;;;8.20;7.45;;;14.40;99.90;;;;;;4982390;28;20053;-55
2022/06/07 02:54:58;;;;;;;8.15;6.00;;;14.40;99.90;;;;;;4977296;28;20191;-56
2022/06/07 02:57:27;;;;;;;7.90;7.00;;;14.40;99.90;;;;;;4980725;28;20227;-55
2022/06/07 02:59:54;;;;;;;7.45;6.75;;;14.40;99.90;;;;;;4984145;28;20908;-55
2022/06/07 03:02:22;;;;;;;12.60;7.57;;;14.40;99.90;;;;;;4969564;28;20770;-55
2022/06/07 03:04:49;;;;;;;7.60;6.85;;;14.40;99.90;;;;;;4987107;28;20450;-55
2022/06/07 03:07:18;;;;;;;9.27;8.05;;;14.40;99.90;;;;;;4981812;28;20714;-55
2022/06/07 03:09:45;;;;;;;8.13;7.38;;;14.40;99.90;;;;;;4989862;28;20063;-54
2022/06/07 03:12:12;;;;;;;8.85;7.28;;;14.40;99.90;;;;;;4987361;28;20044;-55
2022/06/07 03:14:40;;;;;;;9.02;8.13;;;14.40;99.90;;;;;;4986164;28;20044;-55
2022/06/07 03:17:07;;;;;;;7.88;7.07;;;14.40;99.90;;;;;;4988024;28;20052;-54
2022/06/07 03:19:36;;;;;;;9.55;8.63;;;14.40;99.90;;;;;;4985088;28;20034;-54
2022/06/07 03:22:07;;;;;;;8.93;7.70;;;14.40;99.90;;;;;;4985284;28;21017;-54
2022/06/07 03:24:36;;;;;;;8.10;7.30;;;14.50;99.90;;;;;;4984225;28;20140;-54
2022/06/07 03:27:11;;;;;;;7.85;7.05;;;14.40;99.90;;;;;;4975485;28;20111;-54
2022/06/07 03:29:39;;;;;;;7.60;6.82;;;14.50;99.90;;;;;;4988414;28;20347;-55
2022/06/07 03:32:09;;;;;;;13.32;9.15;;;14.50;99.90;;;;;;4987614;28;20922;-55
2022/06/07 03:34:38;;;;;;;8.85;7.13;;;14.40;99.90;;;;;;4990100;28;20144;-55
2022/06/07 03:37:07;;;;;;;8.18;7.38;;;14.50;99.90;;;;;;4984238;28;20293;-55
2022/06/07 03:39:36;;;;;;;10.27;8.55;;;14.50;99.90;;;;;;4986842;28;20067;-56
2022/06/07 03:42:03;;;;;;;8.85;8.00;;;14.40;99.90;;;;;;4987006;28;20029;-55
2022/06/07 03:44:31;;;;;;;8.45;7.57;;;14.40;99.90;;;;;;4984156;28;20049;-55
2022/06/07 03:47:08;;;;;;;;;;;14.40;99.90;;;;;;4981671;28;20422;-55
2022/06/07 03:49:36;;;;;;;7.38;6.07;;;14.40;99.90;;;;;;4990113;28;20322;-56
2022/06/07 03:52:04;;;;;;;7.78;6.97;;;14.40;99.90;;;;;;4983061;28;20060;-55
2022/06/07 03:54:36;;;;;;;9.20;6.03;;;14.40;99.90;;;;;;4979180;28;20045;-54
2022/06/07 03:57:03;;;;;;;6.75;6.03;;;14.40;99.90;;;;;;4968163;28;20513;-55
2022/06/07 03:59:33;;;;;;;8.88;6.47;;;14.30;99.90;;;;;;4959516;28;20056;-56
2022/06/07 04:02:01;;;;;;;8.40;7.18;;;14.30;99.90;;;;;;4968473;28;20025;-56
2022/06/07 04:04:28;;;;;;;7.15;6.32;;;14.30;99.90;;;;;;4984594;28;20053;-55
2022/06/07 04:09:51;;;;;;;7.55;5.03;;;14.20;99.90;;;;;;4970148;28;20154;-55
2022/06/07 04:12:24;;;;;;;7.97;5.10;;;14.20;99.90;;;;;;4991454;28;20033;-54
2022/06/07 04:14:53;;;;;;;7.03;4.97;;;14.10;99.90;;;;;;4986988;28;20048;-55
2022/06/07 04:17:22;;;;;;;10.68;5.63;;;14.10;99.90;;;;;;4987572;28;20364;-55
2022/06/07 04:19:55;;;;;;;8.23;4.88;;;14.00;99.90;;;;;;4984969;28;20037;-54
2022/06/07 04:22:23;;;;;;;5.80;5.20;;;13.90;99.90;;;;;;4988425;28;20033;-55
2022/06/07 04:24:55;;;;;;;7.72;6.18;;;13.90;99.90;;;;;;4985194;28;20946;-55
2022/06/07 04:27:23;;;;;;;6.18;5.57;;;13.80;99.90;;;;;;4987347;28;20190;-54
2022/06/07 04:29:54;;;;;;;10.80;7.10;;;13.70;99.90;;;;;;4985060;28;20765;-53
2022/06/07 04:32:22;;;;;;;6.55;5.68;;;13.70;99.90;;;;;;4985431;28;20053;-49
2022/06/07 04:34:52;;;;;;;7.13;6.43;;;13.70;99.90;;;;;;4986595;28;20041;-51
2022/06/07 04:37:21;;;;;;;7.60;6.80;;;13.60;99.90;;;;;;4986210;28;20368;-51
2022/06/07 04:39:52;;;;;;;8.80;6.43;;;13.60;99.90;;;;;;4983635;28;20049;-51
2022/06/07 04:42:19;;;;;;;8.82;6.22;;;13.60;99.90;;;;;;4984578;28;20152;-53
2022/06/07 04:44:53;;;;;;;7.40;6.40;;;13.60;99.90;;;;;;4986639;28;20115;-53
2022/06/07 04:47:30;;;;;;;9.75;6.72;;;13.60;99.90;;;;;;4985633;28;20158;-48
2022/06/07 04:49:57;;;;;;;8.05;6.28;;;13.60;99.90;;;;;;4971362;28;20207;-51
2022/06/07 04:52:25;;;;;;;8.88;5.93;;;13.60;99.90;;;;;;4987141;28;20554;-49
2022/06/07 04:54:55;;;;;;;8.07;6.35;;;13.60;99.90;;;;;;4981009;28;20131;-51
2022/06/07 04:57:23;;;;;;;8.88;6.32;;;13.60;99.90;;;;;;4989169;28;20048;-50
2022/06/07 04:59:51;;;;;;;9.48;6.95;;;13.50;99.90;;;;;;4970009;28;20048;-51
2022/06/07 05:02:21;;;;;;;6.57;5.97;;;13.50;99.90;;;;;;4972507;28;20038;-49
2022/06/07 05:04:49;;;;;;;6.32;5.72;;;13.50;99.90;;;;;;4967366;28;20041;-50
2022/06/07 05:07:23;;;;;;;6.88;6.22;;;13.50;99.90;;;;;;4971338;28;20636;-50
2022/06/07 05:09:56;;;;;;;6.15;5.40;;;13.50;99.90;;;;;;4987605;28;20039;-55
2022/06/07 05:12:32;;;;;;;6.95;5.00;;;13.60;99.90;;;;;;4991308;28;20206;-56
2022/06/07 05:15:00;;;;;;;6.07;5.47;;;13.50;99.90;;;;;;4988836;28;20044;-55
2022/06/07 05:17:34;;;;;;;7.20;5.00;;;13.60;99.90;;;;;;4987898;28;20299;-55
2022/06/07 05:20:02;;;;;;;5.22;4.50;;;13.50;99.90;;;;;;4989625;28;20037;-56
2022/06/07 05:22:32;;;;;;;6.93;5.10;;;13.50;99.90;;;;;;4983826;28;20328;-55
2022/06/07 05:25:08;;;;;;;7.40;4.90;;;13.60;99.90;;;;;;4986355;28;20900;-54
2022/06/07 05:27:46;;;;;;;9.18;4.97;;;13.60;99.90;;;;;;4987030;28;20348;-54
2022/06/07 05:30:17;;;;;;;4.63;4.13;;;13.60;99.90;;;;;;4984730;28;20229;-55
2022/06/07 05:32:56;;;;;;;7.72;4.10;;;13.50;99.90;;;;;;4984157;28;20049;-55
2022/06/07 05:35:39;;;;;;;5.28;4.78;;;13.50;99.90;;;;;;4987205;28;20055;-55
2022/06/07 05:38:16;;;;;;;7.37;4.50;;;13.50;99.90;;;;;;4984196;28;20111;-55
2022/06/07 05:40:51;;;;;;;9.45;5.03;;;13.50;99.90;;;;;;4988818;28;20467;-55
2022/06/07 05:43:20;;;;;;;11.05;5.15;;;13.50;99.90;;;;;;4987036;28;20044;-57
2022/06/07 05:45:53;;;;;;;7.32;4.90;;;13.60;99.90;;;;;;4987076;28;20628;-52
2022/06/07 05:48:37;;;;;;;6.05;4.57;;;13.60;99.90;;;;;;4990070;28;20112;-52
2022/06/07 05:51:09;;;;;;;5.57;3.78;;;13.60;99.90;;;;;;4987055;28;20045;-52
2022/06/07 05:53:37;;;;;;;4.90;4.40;;;13.60;99.90;;;;;;4988597;28;20444;-51
2022/06/07 05:56:06;;;;;;;6.63;3.75;;;13.60;99.90;;;;;;4986058;28;20045;-52
2022/06/07 05:58:34;;;;;;;6.32;3.50;;;13.60;99.90;;;;;;4971230;28;20048;-52
2022/06/07 06:01:07;;;;;;;7.03;3.13;;;13.60;99.90;;;;;;4982245;28;20979;-52
2022/06/07 06:03:36;;;;;;;4.07;3.17;;;13.60;99.90;;;;;;4969423;28;20033;-52
2022/06/07 06:06:07;;;;;;;6.57;3.25;;;13.60;99.90;;;;;;4984744;28;20217;-52
2022/06/07 06:11:32;;;;;;;7.57;3.17;;;13.60;99.90;;;;;;5000866;28;20045;-53
2022/06/07 06:14:08;;;;;;;3.20;2.85;;;13.60;99.90;;;;;;4992207;28;20360;-52
2022/06/07 06:16:40;;;;;;;6.55;3.10;;;13.60;99.90;;;;;;4985563;28;20103;-53
2022/06/07 06:19:11;;;;;;;2.75;2.20;;;13.60;99.90;;;;;;4987460;28;20077;-57
2022/06/07 06:21:44;;;;;;;3.10;2.70;;;13.60;99.90;;;;;;4986743;28;20041;-57
2022/06/07 06:24:15;;;;;;;3.08;2.67;;;13.60;99.90;;;;;;4987421;28;20075;-56
2022/06/07 06:26:44;;;;;;;3.28;2.53;;;13.60;99.90;;;;;;4987849;28;20417;-56
2022/06/07 06:29:15;;;;;;;3.40;2.38;;;13.60;99.90;;;;;;4968185;28;20053;-56
2022/06/07 06:31:43;;;;;;;5.05;2.53;;;13.70;99.90;;;;;;4988839;28;20693;-55
2022/06/07 06:34:13;;;;;;;3.28;2.90;;;13.70;99.90;;;;;;4984920;28;20048;-55
2022/06/07 06:36:40;;;;;;;5.15;2.97;;;13.70;99.90;;;;;;4987310;28;20076;-56
2022/06/07 06:39:20;;;;;;;3.15;2.83;;;13.80;99.90;;;;;;4985259;28;20041;-56
2022/06/07 06:41:50;;;;;;;6.28;2.72;;;13.80;99.90;;;;;;4972336;28;20047;-55
2022/06/07 06:44:23;;;;;;;4.20;3.00;;;13.80;99.90;;;;;;4984979;28;20232;-55
2022/06/07 06:46:54;;;;;;;3.25;2.67;;;13.90;99.90;;;;;;4973448;28;20312;-56
2022/06/07 06:49:22;;;;;;;3.60;3.17;;;13.90;99.90;;;;;;4986198;28;20041;-55
2022/06/07 06:51:51;;;;;;;5.20;2.85;;;13.90;99.90;;;;;;4984116;28;20130;-56
2022/06/07 06:54:24;;;;;;;3.67;2.78;;;13.90;99.90;;;;;;4987021;28;20981;-55
2022/06/07 06:56:57;;;;;;;2.67;2.35;;;13.90;99.90;;;;;;4981309;28;20134;-54
2022/06/07 06:59:27;;;;;;;7.65;2.88;;;13.90;99.90;;;;;;4986570;28;20593;-53
2022/06/07 07:01:58;;;;;;;3.92;2.42;;;13.90;99.90;;;;;;4967279;28;20547;-53
2022/06/07 07:04:29;;;;;;;2.58;2.38;;;13.90;99.90;;;;;;4984687;28;20160;-53
2022/06/07 07:06:58;;;;;;;2.83;2.58;;;13.90;99.90;;;;;;4980685;28;20361;-54
2022/06/07 07:09:28;;;;;;;6.03;2.63;;;13.90;99.90;;;;;;4983452;28;20579;-54
2022/06/07 07:12:00;;;;;;;6.15;2.67;;;13.90;99.90;;;;;;4986338;28;20107;-64
2022/06/07 07:14:36;;;;;;;5.32;2.53;;;13.90;99.90;;;;;;4984105;28;20159;-54
2022/06/07 07:17:04;;;;;;;2.63;2.42;;;14.00;99.90;;;;;;4983191;28;20262;-47
2022/06/07 07:19:33;;;;;;;3.05;2.13;;;14.00;99.90;;;;;;4965758;28;20045;-48
2022/06/07 07:22:06;;;;;;;2.78;2.58;;;14.00;99.90;;;;;;4981227;28;20056;-48
2022/06/07 07:24:34;;;;;;;2.42;2.22;;;14.10;99.90;;;;;;4984952;28;20037;-47
2022/06/07 07:27:04;;;;;;;4.70;2.50;;;14.20;99.90;;;;;;4986739;28;20041;-50
2022/06/07 07:29:32;;;;;;;3.58;3.00;;;14.20;99.90;;;;;;4983961;28;20049;-48
2022/06/07 07:32:05;;;;;;;2.70;2.20;;;14.30;99.90;;;;;;4988393;28;20044;-49
2022/06/07 07:34:43;;;;;;;4.07;2.90;;;14.30;99.90;;;;;;4987221;28;20044;-48
2022/06/07 07:37:11;;;;;;;2.90;2.58;;;14.40;99.90;;;;;;4985763;28;20045;-49
2022/06/07 07:39:39;;;;;;;2.42;2.22;;;14.40;99.90;;;;;;4989704;28;20352;-50
2022/06/07 07:42:12;;;;;;;2.90;2.33;;;14.50;99.90;;;;;;4986317;28;20040;-51
2022/06/07 07:44:44;;;;;;;2.22;2.03;;;14.50;99.90;;;;;;4985969;28;20045;-48
2022/06/07 07:47:12;;;;;;;2.22;2.03;;;14.50;99.90;;;;;;4984656;28;20601;-50
2022/06/07 07:49:41;;;;;;;4.03;2.05;;;14.50;99.90;;;;;;4987068;28;20376;-54
2022/06/07 07:52:10;;;;;;;4.03;2.10;;;14.50;99.90;;;;;;4983988;28;20045;-52
2022/06/07 07:54:39;;;;;;;1.70;1.60;;;14.50;99.90;;;;;;4984825;28;20045;-52
2022/06/07 07:57:09;;;;;;;2.17;1.90;;;14.50;99.90;;;;;;4985188;28;20238;-52
2022/06/07 07:59:43;;;;;;;2.30;2.10;;;14.50;99.90;;;;;;4976547;28;20582;-55
2022/06/07 08:02:20;;;;;;;1.60;1.50;;;14.50;99.90;;;;;;4979925;28;20037;-52
2022/06/07 08:04:52;;;;;;;3.33;1.98;;;14.50;99.90;;;;;;4965655;28;20156;-53
2022/06/07 08:07:19;;;;;;;1.80;1.70;;;14.50;99.90;;;;;;4967541;28;20191;-53
2022/06/07 08:09:46;;;;;;;2.15;1.92;;;14.50;99.90;;;;;;4972249;28;20136;-52
2022/06/07 08:12:15;;;;;;;2.53;1.52;;;14.60;99.90;;;;;;4986449;28;20148;-53
2022/06/07 08:14:41;;;;;;;1.88;1.77;;;14.60;99.90;;;;;;4990126;28;20037;-53
2022/06/07 08:17:08;;;;;;;2.42;1.85;;;14.70;99.90;;;;;;4985507;28;20146;-53
2022/06/07 08:19:35;;;;;;;3.40;1.75;;;14.70;99.90;;;;;;4987333;28;20045;-53
2022/06/07 08:22:04;;;;;;;2.67;1.48;;;14.70;99.90;;;;;;4985844;28;20048;-53
2022/06/07 08:24:31;;;;;;;1.70;1.60;;;14.70;99.90;;;;;;4987463;28;20651;-52
2022/06/07 08:26:59;;;;;;;2.45;2.25;;;14.70;99.90;;;;;;4983700;28;20131;-53
2022/06/07 08:29:26;;;;;;;1.63;1.52;;;14.70;99.90;;;;;;4992393;28;20045;-53
2022/06/07 08:31:53;;;;;;;1.80;1.70;;;14.70;99.90;;;;;;4991006;28;20387;-53
2022/06/07 08:39:51;;;;;;;2.90;2.60;;;14.70;99.90;;;;;;4975735;28;20048;-53
2022/06/07 08:42:32;;;;;;;2.70;1.77;;;14.80;99.90;;;;;;4987925;28;20321;-50
2022/06/07 08:45:20;;;;;;;2.33;1.50;;;14.80;99.90;;;;;;4987127;28;20164;-51
2022/06/07 08:48:00;;;;;;;2.90;1.60;;;14.80;99.90;;;;;;4994238;28;20041;-50
2022/06/07 08:50:34;;;;;;;1.88;1.70;;;14.90;99.90;;;;;;4992550;28;20044;-51
2022/06/07 08:53:11;;;;;;;4.80;2.17;;;14.90;99.90;;;;;;4995907;28;20110;-52
2022/06/07 08:55:46;;;;;;;;;;;15.00;99.90;;;;;;4987966;28;20233;-51
2022/06/07 08:58:18;;;;;;;2.67;1.90;;;15.10;99.90;;;;;;4995323;28;19963;-53
2022/06/07 09:00:57;;;;;;;1.75;1.65;;;15.30;99.90;;;;;;4986342;28;20122;-50
2022/06/07 09:03:51;;;;;;;2.38;1.48;;;15.30;99.90;;;;;;4971811;28;20057;-50
2022/06/07 09:06:25;;;;;;;3.25;1.65;;;15.40;99.90;;;;;;4989652;28;20782;-60
2022/06/07 09:08:54;;;;;;;1.40;1.27;;;15.50;99.90;;;;;;4973231;28;20072;-55
2022/06/07 09:14:53;;;;;;;;;;;15.50;99.90;;;;;;4971130;28;20207;-52
2022/06/07 09:17:40;;;;;;;1.40;1.30;;;15.60;99.90;;;;;;4967747;28;20015;-54
2022/06/07 09:20:15;;;;;;;5.17;1.80;;;15.60;99.90;;;;;;4984362;28;20639;-56
2022/06/07 09:23:15;;;;;;;2.75;1.52;;;15.70;99.90;;;;;;4994575;28;20790;-62
2022/06/07 09:25:48;;;;;;;11.40;5.10;;;15.70;99.90;;;;;;4989895;28;21018;-63
2022/06/07 09:28:29;;;;;;;2.47;1.45;;;15.80;99.90;;;;;;4988256;28;20199;-59
2022/06/07 09:31:09;;;;;;;4.03;1.35;;;15.80;99.90;;;;;;4992860;28;20570;-52
2022/06/07 09:33:56;;;;;;;1.55;1.30;;;15.80;99.90;;;;;;4990168;28;20321;-53
2022/06/07 09:36:28;;;;;;;4.10;2.03;;;15.70;99.90;;;;;;4994618;28;20033;-53
2022/06/07 09:38:58;;;;;;;1.85;1.10;;;15.80;99.90;;;;;;4993671;28;20802;-56
2022/06/07 09:41:43;;;;;;;3.22;3.03;;;15.80;99.90;;;;;;4989273;28;20045;-54
2022/06/07 09:44:21;;;;;;;1.33;1.20;;;15.90;99.90;;;;;;4985376;28;20144;-56
2022/06/07 09:46:57;;;;;;;1.88;1.00;;;15.90;99.90;;;;;;4992484;28;20059;-54
2022/06/07 09:49:36;;;;;;;2.47;1.10;;;15.90;99.90;;;;;;4990609;28;20577;-55
2022/06/07 09:52:23;;;;;;;1.02;0.93;;;15.90;99.90;;;;;;4987124;28;20502;-55
2022/06/07 09:55:06;;;;;;;0.90;0.90;;;15.90;99.90;;;;;;4994247;28;20048;-56
2022/06/07 09:57:49;;;;;;;1.23;1.10;;;16.00;99.90;;;;;;4991854;28;20538;-54
2022/06/07 10:00:43;;;;;;;1.13;1.00;;;16.00;99.90;;;;;;4992083;28;20099;-56
2022/06/07 10:03:22;;;;;;;2.38;1.10;;;16.10;99.90;;;;;;4970695;28;20118;-56
2022/06/07 10:05:57;;;;;;;1.17;1.17;;;16.10;99.90;;;;;;4974209;28;20041;-55
2022/06/07 10:08:45;;;;;;;1.15;1.02;;;16.10;99.90;;;;;;4971403;28;20140;-56
2022/06/07 10:11:12;;;;;;;;;;;16.20;99.90;;;;;;4989744;28;20037;-57
2022/06/07 10:13:56;;;;;;;1.55;1.10;;;16.20;99.90;;;;;;4969714;28;20711;-55
2022/06/07 10:16:34;;;;;;;1.48;1.05;;;16.10;99.90;;;;;;4970948;28;20328;-56
2022/06/07 10:19:13;;;;;;;5.10;1.25;;;16.20;99.90;;;;;;4987539;28;20049;-56
2022/06/07 10:21:58;;;;;;;2.50;1.13;;;16.20;99.90;;;;;;4993458;28;20041;-55
2022/06/07 10:24:42;;;;;;;1.85;1.05;;;16.40;99.90;;;;;;4990384;28;20329;-54
2022/06/07 10:27:22;;;;;;;0.90;0.80;;;16.60;99.90;;;;;;4993184;28;20055;-55
2022/06/07 10:30:19;;;;;;;0.50;0.50;;;16.70;99.90;;;;;;4990314;28;20072;-55
2022/06/07 10:33:25;;;;;;;1.98;0.90;;;16.80;99.90;;;;;;4970621;28;20048;-55
2022/06/07 10:36:14;;;;;;;2.13;0.80;;;17.00;99.90;;;;;;4949224;28;20050;-55
2022/06/07 10:39:12;;;;;;;0.77;0.77;;;17.00;99.90;;;;;;4971884;28;20045;-55
2022/06/07 10:41:58;;;;;;;2.22;0.75;;;17.10;99.90;;;;;;4976026;28;20211;-56
2022/06/07 10:44:37;;;;;;;0.93;0.70;;;17.10;99.90;;;;;;4990612;28;20044;-55
2022/06/07 10:47:21;;;;;;;1.58;0.85;;;17.30;99.90;;;;;;4991127;28;20195;-56
2022/06/07 10:49:58;;;;;;;1.15;0.60;;;17.50;99.90;;;;;;4987633;28;20537;-56
2022/06/07 10:52:27;;;;;;;0.75;0.70;;;17.80;99.90;;;;;;4972233;28;20219;-56
2022/06/07 10:55:06;;;;;;;2.22;0.80;;;18.10;99.90;;;;;;4994482;28;20585;-56
2022/06/07 10:57:57;;;;;;;0.43;0.43;;;18.30;99.90;;;;;;4991903;28;20147;-56
2022/06/07 11:00:36;;;;;;;4.55;0.88;;;18.40;99.90;;;;;;5006888;28;20049;-56
2022/06/07 11:03:18;;;;;;;0.55;0.47;;;18.30;99.90;;;;;;4980664;28;20033;-56
2022/06/07 11:12:04;;;;;;;0.57;0.40;;;18.10;99.90;;;;;;4909158;28;20443;-56
2022/06/07 11:14:55;;;;;;;0.80;0.45;;;18.20;99.90;;;;;;4960314;28;20147;-56
2022/06/07 11:17:41;;;;;;;0.70;0.50;;;18.40;99.90;;;;;;4974049;28;20064;-56
2022/06/07 11:20:17;;;;;;;0.55;0.55;;;18.60;99.90;;;;;;4971595;28;20041;-57
2022/06/07 11:23:12;;;;;;;1.40;0.50;;;18.80;99.90;;;;;;4971930;28;20048;-57
2022/06/07 11:26:06;;;;;;;0.30;0.30;;;18.90;99.90;;;;;;4970393;28;20045;-57
2022/06/07 11:28:38;;;;;;;0.55;0.40;;;19.00;99.90;;;;;;4972925;28;20084;-56
2022/06/07 11:31:21;;;;;;;1.80;0.60;;;19.00;99.90;;;;;;4969312;28;20042;-57
2022/06/07 11:33:51;;;;;;;1.23;0.60;;;19.10;99.90;;;;;;4973032;28;20597;-56
2022/06/07 11:36:24;;;;;;;1.35;0.50;;;19.10;99.90;;;;;;4967964;28;20045;-57
2022/06/07 11:38:56;;;;;;;1.85;0.60;;;19.10;99.90;;;;;;4968127;28;20380;-57
2022/06/07 11:41:38;;;;;;;0.55;0.45;;;19.10;99.90;;;;;;4977888;28;20138;-58
2022/06/07 11:44:07;;;;;;;1.20;0.50;;;19.10;99.90;;;;;;4976653;28;20375;-54
2022/06/07 11:46:34;;;;;;;0.50;0.50;;;19.00;99.90;;;;;;4984548;28;20033;-54
2022/06/07 11:49:23;;;;;;;1.75;0.65;;;18.90;99.90;;;;;;4988782;28;20100;-52
2022/06/07 11:52:13;;;;;;;1.58;0.60;;;18.90;99.90;;;;;;4982611;28;20072;-53
2022/06/07 11:54:43;;;;;;;0.52;0.52;;;18.90;99.90;;;;;;4982297;28;20060;-52
2022/06/07 11:57:33;;;;;;;2.88;0.70;;;19.00;99.90;;;;;;4987370;28;20037;-54
2022/06/07 12:00:19;;;;;;;1.08;0.50;;;19.00;99.90;;;;;;4984019;28;20205;-54
2022/06/07 12:03:08;;;;;;;1.33;0.73;;;19.10;99.90;;;;;;4987260;28;20215;-53
2022/06/07 12:05:53;;;;;;;1.67;0.85;;;19.00;99.90;;;;;;4973227;28;20617;-55
2022/06/07 12:08:28;;;;;;;0.68;0.50;;;19.00;99.90;;;;;;4985702;28;20048;-54
2022/06/07 12:11:29;;;;;;;0.85;0.73;;;19.00;99.90;;;;;;4981118;28;20164;-54
2022/06/07 12:14:18;;;;;;;0.82;0.60;;;18.90;99.90;;;;;;4983954;28;20053;-58
2022/06/07 12:17:01;;;;;;;1.13;1.00;;;19.00;99.90;;;;;;4970922;28;20392;-56
2022/06/07 12:19:32;;;;;;;0.70;0.70;;;19.10;99.90;;;;;;4968809;28;20046;-55
2022/06/07 12:22:05;;;;;;;1.27;0.70;;;19.10;99.90;;;;;;4969057;28;20045;-54
2022/06/07 12:24:58;;;;;;;0.40;0.40;;;19.20;99.90;;;;;;4964995;28;20041;-66
2022/06/07 12:27:44;;;;;;;0.85;0.65;;;19.30;99.90;;;;;;4968434;28;20046;-55
2022/06/07 12:30:24;;;;;;;0.40;0.40;;;19.40;99.90;;;;;;4967136;28;20077;-53
2022/06/07 12:32:54;;;;;;;2.00;0.57;;;19.50;99.90;;;;;;4965928;28;20790;-53
2022/06/07 12:35:28;;;;;;;0.50;0.50;;;19.60;99.90;;;;;;4966841;28;20045;-57
2022/06/07 12:38:00;;;;;;;0.75;0.43;;;19.50;99.90;;;;;;4954365;28;20310;-55
2022/06/07 12:40:46;;;;;;;0.52;0.40;;;19.60;99.90;;;;;;4948151;28;20341;-55
2022/06/07 12:43:29;;;;;;;0.68;0.30;;;19.80;99.90;;;;;;4977300;28;20352;-53
2022/06/07 12:46:04;;;;;;;0.57;0.30;;;20.00;99.90;;;;;;4990104;28;20511;-52
2022/06/07 12:48:38;;;;;;;2.90;0.55;;;20.20;99.90;;;;;;4987551;28;20041;-53
2022/06/07 12:51:24;;;;;;;4.05;0.68;;;20.40;99.90;;;;;;4990331;28;20312;-54
2022/06/07 12:54:02;;;;;;;0.43;0.43;;;20.70;99.90;;;;;;4981804;28;20209;-52
2022/06/07 12:56:35;;;;;;;0.40;0.40;;;21.00;99.90;;;;;;4988645;28;20434;-53
2022/06/07 12:59:07;;;;;;;0.50;0.50;;;21.10;99.90;;;;;;4985483;28;20060;-58
2022/06/07 13:01:39;;;;;;;0.57;0.57;;;21.30;99.90;;;;;;4988216;28;20380;-65
2022/06/07 13:04:18;;;;;;;0.98;0.30;;;21.40;99.90;;;;;;4979274;28;21026;-57
2022/06/07 13:07:07;;;;;;;1.58;0.70;;;21.30;99.90;;;;;;4980028;28;20592;-53
2022/06/07 13:09:57;;;;;;;;;;;21.10;99.90;;;;;;4971739;28;20025;-56
2022/06/07 13:12:36;;;;;;;0.40;0.40;;;21.10;99.90;;;;;;4989436;28;19932;-54
2022/06/07 13:15:13;;;;;;;1.08;0.65;;;21.20;99.90;;;;;;4985526;28;20052;-56
2022/06/07 13:17:52;;;;;;;0.57;0.57;;;21.10;99.90;;;;;;4990856;28;20029;-55
2022/06/07 13:20:41;;;;;;;0.60;0.55;;;20.90;99.90;;;;;;4990534;28;20114;-55
2022/06/07 13:23:32;;;;;;;1.00;0.75;;;20.80;99.90;;;;;;4975381;28;20126;-55
2022/06/07 13:26:19;;;;;;;0.68;0.57;;;20.70;99.90;;;;;;4987360;28;20029;-55
2022/06/07 13:28:55;;;;;;;1.08;0.77;;;20.60;99.90;;;;;;4983504;28;20045;-55
2022/06/07 13:31:27;;;;;;;0.93;0.75;;;20.70;99.90;;;;;;4986492;28;20063;-55
2022/06/07 13:34:04;;;;;;;0.65;0.50;;;20.80;99.90;;;;;;4987555;28;20578;-55
2022/06/07 13:36:40;;;;;;;3.80;1.42;;;20.90;99.90;;;;;;4985276;28;20104;-56
2022/06/07 13:39:27;;;;;;;0.80;0.80;;;21.00;99.90;;;;;;4984229;28;20742;-54
2022/06/07 13:42:08;;;;;;;1.38;0.63;;;21.20;99.90;;;;;;4990061;28;20334;-54
2022/06/07 13:45:04;;;;;;;3.45;0.57;;;21.20;99.90;;;;;;4982826;28;20114;-54
2022/06/07 13:47:35;;;;;;;1.15;0.70;;;21.20;99.90;;;;;;4983551;28;20832;-55
2022/06/07 13:53:23;;;;;;;0.63;0.60;;;20.80;99.90;;;;;;4988988;28;20561;-55